Time;durP1;ratioP1;P1;durP2;ratioP2;P2;SDS_P1;SDS_P2;PMS_P1;PMS_P2;Temp;Humidity;BMP_temperature;BMP_pressure;BME280_temperature;BME280_humidity;BME280_pressure;Samples;Min_cycle;Max_cycle;Signal;HPM_P1;HPM_P2
2024/01/19 00:01:55;;;;;;;54.00;30.45;;;;;;;-7.23;100.00;100448.03;7396106;19;20469;-69
2024/01/19 00:04:23;;;;;;;56.33;31.80;;;;;;;-7.26;100.00;100451.31;7394869;19;20028;-68
2024/01/19 00:06:52;;;;;;;56.30;32.58;;;;;;;-7.25;100.00;100452.22;7395651;19;20014;-69
2024/01/19 00:09:21;;;;;;;58.05;32.42;;;;;;;-7.28;100.00;100468.22;7395837;19;20023;-71
2024/01/19 00:11:50;;;;;;;52.25;30.75;;;;;;;-7.28;100.00;100469.88;7395418;19;20481;-69
2024/01/19 00:14:18;;;;;;;52.42;29.42;;;;;;;-7.29;100.00;100470.69;7394122;19;20018;-69
2024/01/19 00:16:47;;;;;;;62.20;33.28;;;;;;;-7.31;100.00;100477.41;7395373;19;20010;-68
2024/01/19 00:19:18;;;;;;;54.33;32.00;;;;;;;-7.33;100.00;100474.78;7395626;19;20070;-69
2024/01/19 00:21:47;;;;;;;54.78;31.80;;;;;;;-7.33;100.00;100473.91;7396023;19;20030;-70
2024/01/19 00:24:16;;;;;;;55.38;31.88;;;;;;;-7.36;100.00;100475.50;7393755;19;20498;-70
2024/01/19 00:26:47;;;;;;;55.63;33.28;;;;;;;-7.36;100.00;100475.50;7395103;19;20024;-69
2024/01/19 00:29:15;;;;;;;55.58;31.30;;;;;;;-7.32;100.00;100478.22;7395667;19;20083;-69
2024/01/19 00:31:46;;;;;;;56.63;31.60;;;;;;;-7.32;100.00;100473.13;7393252;19;20020;-69
2024/01/19 00:34:18;;;;;;;58.83;30.92;;;;;;;-7.29;100.00;100480.88;7394035;19;20088;-69
2024/01/19 00:36:46;;;;;;;60.78;33.42;;;;;;;-7.27;100.00;100480.16;7394799;19;20027;-68
2024/01/19 00:39:15;;;;;;;53.03;31.10;;;;;;;-7.24;100.00;100485.41;7395196;19;20014;-69
2024/01/19 00:41:45;;;;;;;58.90;31.77;;;;;;;-7.22;100.00;100491.44;7394625;19;20017;-69
2024/01/19 00:44:14;;;;;;;58.40;32.25;;;;;;;-7.18;100.00;100492.44;7393512;19;20011;-69
2024/01/19 00:46:42;;;;;;;49.13;29.88;;;;;;;-7.15;100.00;100487.50;7394892;19;20014;-69
2024/01/19 00:49:11;;;;;;;56.38;29.80;;;;;;;-7.12;100.00;100490.19;7392802;19;20027;-69
2024/01/19 00:51:42;;;;;;;57.10;32.05;;;;;;;-7.11;100.00;100496.19;7393012;19;20007;-69
2024/01/19 00:54:10;;;;;;;54.08;29.33;;;;;;;-7.10;100.00;100487.69;7393407;19;20082;-71
2024/01/19 00:56:39;;;;;;;52.75;30.00;;;;;;;-7.08;100.00;100486.97;7394928;19;20541;-69
2024/01/19 00:59:08;;;;;;;53.22;28.90;;;;;;;-7.07;100.00;100496.38;7394247;19;20460;-69
2024/01/19 01:01:36;;;;;;;48.65;29.23;;;;;;;-7.08;100.00;100489.50;7394101;19;20011;-69
2024/01/19 01:04:05;;;;;;;51.80;28.73;;;;;;;-7.05;100.00;100494.78;7393673;19;20031;-69
2024/01/19 01:06:34;;;;;;;46.53;27.73;;;;;;;-7.04;100.00;100496.53;7401923;19;20038;-69
2024/01/19 01:09:05;;;;;;;50.75;26.98;;;;;;;-7.05;100.00;100489.66;7402265;19;20019;-69
2024/01/19 01:11:34;;;;;;;47.85;27.17;;;;;;;-7.05;100.00;100491.31;7400108;19;20070;-69
2024/01/19 01:14:03;;;;;;;43.85;25.92;;;;;;;-7.05;100.00;100497.31;7399749;19;20022;-70
2024/01/19 01:16:31;;;;;;;43.28;26.08;;;;;;;-7.06;100.00;100494.72;7401194;19;20013;-69
2024/01/19 01:19:00;;;;;;;45.83;27.48;;;;;;;-7.07;100.00;100493.81;7401080;19;20473;-69
2024/01/19 01:21:28;;;;;;;42.10;26.60;;;;;;;-7.07;100.00;100498.91;7398732;19;20007;-69
2024/01/19 01:23:57;;;;;;;41.22;25.60;;;;;;;-7.07;100.00;100503.16;7399235;19;20385;-69
2024/01/19 01:26:25;;;;;;;45.15;25.35;;;;;;;-7.08;100.00;100504.81;7401093;19;20118;-69
2024/01/19 01:28:54;;;;;;;48.40;27.45;;;;;;;-7.09;100.00;100509.84;7400985;19;20351;-69
2024/01/19 01:31:22;;;;;;;46.08;24.63;;;;;;;-7.13;100.00;100507.97;7399318;19;20014;-68
2024/01/19 01:33:51;;;;;;;46.97;26.83;;;;;;;-7.15;100.00;100518.09;7398944;19;20427;-68
2024/01/19 01:36:21;;;;;;;41.47;25.20;;;;;;;-7.18;100.00;100527.28;7400670;19;20014;-69
2024/01/19 01:38:49;;;;;;;44.13;25.58;;;;;;;-7.18;100.00;100530.69;7401133;19;20070;-68
2024/01/19 01:41:17;;;;;;;42.63;25.73;;;;;;;-7.19;100.00;100531.50;7400482;19;20376;-68
2024/01/19 01:43:48;;;;;;;45.53;25.02;;;;;;;-7.18;100.00;100529.84;7398813;19;20081;-68
2024/01/19 01:46:17;;;;;;;38.72;23.10;;;;;;;-7.17;100.00;100539.25;7400324;19;20027;-69
2024/01/19 01:48:46;;;;;;;40.72;24.55;;;;;;;-7.17;100.00;100542.66;7398552;19;20028;-68
2024/01/19 01:51:15;;;;;;;44.90;27.17;;;;;;;-7.14;100.00;100545.38;7398601;19;20086;-68
2024/01/19 01:53:44;;;;;;;45.72;24.92;;;;;;;-7.11;100.00;100542.94;7398903;19;20014;-69
2024/01/19 01:56:13;;;;;;;46.03;26.50;;;;;;;-7.10;100.00;100539.59;7400375;19;20015;-69
2024/01/19 01:58:41;;;;;;;44.63;27.80;;;;;;;-7.08;100.00;100549.84;7400324;19;20077;-68
2024/01/19 02:01:13;;;;;;;46.53;26.00;;;;;;;-7.07;100.00;100547.38;7400152;19;20014;-68
2024/01/19 02:03:42;;;;;;;45.03;27.10;;;;;;;-7.06;100.00;100551.66;7398949;19;20090;-68
2024/01/19 02:06:11;;;;;;;43.60;25.58;;;;;;;-7.06;100.00;100554.22;7399953;19;20025;-68
2024/01/19 02:08:42;;;;;;;51.72;27.15;;;;;;;-7.04;100.00;100554.28;7399630;19;20502;-68
2024/01/19 02:11:11;;;;;;;46.40;26.83;;;;;;;-7.05;100.00;100550.88;7397046;19;20019;-68
2024/01/19 02:13:39;;;;;;;49.00;26.90;;;;;;;-7.02;100.00;100552.69;7399208;19;20027;-68
2024/01/19 02:16:08;;;;;;;45.97;25.50;;;;;;;-7.01;100.00;100551.91;7398250;19;20031;-68
2024/01/19 02:18:39;;;;;;;42.60;25.42;;;;;;;-7.01;100.00;100554.44;7396931;19;20011;-68
2024/01/19 02:21:08;;;;;;;45.60;26.70;;;;;;;-7.02;100.00;100562.03;7400090;19;20074;-68
2024/01/19 02:23:42;;;;;;;46.55;25.75;;;;;;;-7.02;100.00;100565.44;7398134;19;20022;-68
2024/01/19 02:26:13;;;;;;;46.53;26.13;;;;;;;-7.03;100.00;100566.25;7399001;19;20031;-68
2024/01/19 02:28:42;;;;;;;43.05;25.55;;;;;;;-7.04;100.00;100570.47;7399712;19;20423;-68
2024/01/19 02:31:10;;;;;;;49.08;26.08;;;;;;;-7.02;100.00;100572.25;7398029;19;20027;-68
2024/01/19 02:33:39;;;;;;;46.92;25.88;;;;;;;-7.04;100.00;100570.47;7396437;19;20502;-68
2024/01/19 02:36:08;;;;;;;45.45;26.25;;;;;;;-7.04;100.00;100574.69;7398677;19;20368;-68
2024/01/19 02:38:42;;;;;;;43.63;26.17;;;;;;;-7.06;100.00;100568.66;7399032;19;20424;-69
2024/01/19 02:41:13;;;;;;;46.97;26.77;;;;;;;-7.07;100.00;100567.78;7396325;19;20023;-68
2024/01/19 02:43:42;;;;;;;42.72;25.80;;;;;;;-7.07;100.00;100567.78;7397188;19;20428;-68
2024/01/19 02:46:12;;;;;;;44.53;26.77;;;;;;;-7.06;100.00;100583.97;7398343;19;20010;-68
2024/01/19 02:48:47;;;;;;;43.78;25.10;;;;;;;-7.07;100.00;100569.47;7396120;19;20010;-68
2024/01/19 02:51:21;;;;;;;47.55;24.77;;;;;;;-7.09;100.00;100564.28;7398004;19;20039;-68
2024/01/19 02:53:50;;;;;;;41.47;23.08;;;;;;;-7.07;100.00;100565.22;7397157;19;20031;-68
2024/01/19 02:56:21;;;;;;;45.22;25.35;;;;;;;-7.06;100.00;100555.91;7396359;19;20104;-68
2024/01/19 02:58:50;;;;;;;42.70;24.05;;;;;;;-7.04;100.00;100567.03;7398484;19;20037;-68
2024/01/19 03:01:18;;;;;;;39.55;23.40;;;;;;;-7.04;100.00;100561.94;7397816;19;20502;-69
2024/01/19 03:03:47;;;;;;;38.03;19.90;;;;;;;-7.04;100.00;100570.47;7396584;19;20018;-69
2024/01/19 03:06:15;;;;;;;36.10;20.05;;;;;;;-7.02;100.00;100560.34;7397986;19;20034;-69
2024/01/19 03:08:44;;;;;;;37.13;21.85;;;;;;;-6.97;100.00;100558.03;7397582;19;20363;-69
2024/01/19 03:11:12;;;;;;;35.05;19.38;;;;;;;-6.94;100.00;100560.69;7395774;19;20031;-69
2024/01/19 03:13:43;;;;;;;30.33;17.98;;;;;;;-6.89;100.00;100561.78;7396653;19;20031;-69
2024/01/19 03:16:12;;;;;;;31.67;18.55;;;;;;;-6.85;100.00;100567.91;7395361;19;20014;-69
2024/01/19 03:18:40;;;;;;;37.88;18.33;;;;;;;-6.81;100.00;100563.00;7397575;19;20019;-69
2024/01/19 03:21:09;;;;;;;29.35;17.40;;;;;;;-6.75;100.00;100570.06;7397423;19;20015;-69
2024/01/19 03:23:37;;;;;;;28.05;15.88;;;;;;;-6.73;100.00;100571.88;7397582;19;20018;-69
2024/01/19 03:26:06;;;;;;;26.50;15.75;;;;;;;-6.70;100.00;100573.69;7396753;19;20429;-69
2024/01/19 03:28:34;;;;;;;25.55;15.82;;;;;;;-6.68;100.00;100574.66;7396087;19;20018;-69
2024/01/19 03:31:06;;;;;;;25.58;15.10;;;;;;;-6.67;100.00;100575.50;7396920;19;20032;-68
2024/01/19 03:33:34;;;;;;;26.23;14.52;;;;;;;-6.66;100.00;100578.16;7396411;19;20015;-68
2024/01/19 03:36:03;;;;;;;25.05;15.07;;;;;;;-6.65;100.00;100590.09;7394963;19;20018;-69
2024/01/19 03:38:32;;;;;;;24.95;15.30;;;;;;;-6.67;100.00;100585.72;7396703;19;20082;-68
2024/01/19 03:41:00;;;;;;;22.00;13.15;;;;;;;-6.68;100.00;100594.16;7396267;19;20014;-68
2024/01/19 03:43:29;;;;;;;27.83;12.63;;;;;;;-6.71;100.00;100582.16;7394951;19;20094;-68
2024/01/19 03:45:57;;;;;;;23.73;12.90;;;;;;;-6.73;100.00;100579.53;7396674;19;20372;-69
2024/01/19 03:48:28;;;;;;;25.95;12.63;;;;;;;-6.73;100.00;100587.19;7396128;19;20036;-68
2024/01/19 03:50:57;;;;;;;22.17;13.45;;;;;;;-6.72;100.00;100594.03;7396274;19;20022;-68
2024/01/19 03:53:25;;;;;;;20.33;12.48;;;;;;;-6.71;100.00;100593.25;7395352;19;20494;-68
2024/01/19 03:55:51;;;;;;;22.23;13.02;;;;;;;-6.70;100.00;100599.22;7394748;19;20033;-68
2024/01/19 03:58:20;;;;;;;23.00;11.93;;;;;;;-6.71;100.00;100595.78;7396325;19;20010;-69
2024/01/19 04:00:48;;;;;;;16.92;10.52;;;;;;;-6.68;100.00;100600.16;7395813;19;20481;-68
2024/01/19 04:03:19;;;;;;;18.88;10.73;;;;;;;-6.67;100.00;100608.69;7395374;19;20018;-68
2024/01/19 04:05:50;;;;;;;21.80;11.85;;;;;;;-6.66;100.00;100597.69;7396497;19;20014;-69
2024/01/19 04:08:19;;;;;;;22.42;11.90;;;;;;;-6.65;100.00;100602.84;7394080;19;20021;-68
2024/01/19 04:10:47;;;;;;;20.40;11.68;;;;;;;-6.64;100.00;100608.84;7395274;19;20007;-69
2024/01/19 04:13:16;;;;;;;20.80;11.45;;;;;;;-6.64;100.00;100612.25;7394039;19;20078;-68
2024/01/19 04:15:51;;;;;;;27.65;12.98;;;;;;;-6.63;100.00;100618.25;7395367;19;20035;-69
2024/01/19 04:18:20;;;;;;;17.63;10.93;;;;;;;-6.63;100.00;100613.16;7395486;19;20024;-69
2024/01/19 04:20:51;;;;;;;22.05;12.15;;;;;;;-6.62;100.00;100620.88;7395660;19;20072;-69
2024/01/19 04:23:19;;;;;;;17.92;11.95;;;;;;;-6.60;100.00;100618.38;7395266;19;20014;-69
2024/01/19 04:25:48;;;;;;;22.55;12.90;;;;;;;-6.60;100.00;100623.47;7395122;19;20506;-69
2024/01/19 04:28:16;;;;;;;22.00;12.30;;;;;;;-6.60;100.00;100621.78;7393855;19;20018;-68
2024/01/19 04:30:51;;;;;;;21.30;11.95;;;;;;;-6.58;100.00;100624.44;7394952;19;20031;-68
2024/01/19 04:33:19;;;;;;;17.35;11.20;;;;;;;-6.58;100.00;100627.00;7394852;19;20010;-69
2024/01/19 04:35:50;;;;;;;24.77;12.48;;;;;;;-6.58;100.00;100638.06;7394788;19;20006;-68
2024/01/19 04:38:19;;;;;;;20.00;12.30;;;;;;;-6.61;100.00;100631.94;7395380;19;20032;-68
2024/01/19 04:40:47;;;;;;;24.02;13.23;;;;;;;-6.64;100.00;100632.66;7401314;19;20007;-68
2024/01/19 04:43:15;;;;;;;26.23;13.40;;;;;;;-6.66;100.00;100635.97;7399278;19;20018;-68
2024/01/19 04:45:44;;;;;;;20.77;12.50;;;;;;;-6.70;100.00;100632.38;7402585;19;20032;-68
2024/01/19 04:48:12;;;;;;;22.00;12.10;;;;;;;-6.72;100.00;100639.13;7401849;19;20023;-68
2024/01/19 04:50:41;;;;;;;30.60;13.25;;;;;;;-6.74;100.00;100646.66;7402321;19;20023;-69
2024/01/19 04:53:12;;;;;;;22.95;12.65;;;;;;;-6.75;100.00;100644.06;7399526;19;20077;-68
2024/01/19 04:55:40;;;;;;;21.27;12.55;;;;;;;-6.77;100.00;100646.53;7402586;19;20074;-69
2024/01/19 04:58:09;;;;;;;21.17;11.38;;;;;;;-6.77;100.00;100648.22;7399356;19;20018;-68
2024/01/19 05:00:37;;;;;;;23.00;13.00;;;;;;;-6.79;100.00;100645.59;7402255;19;20015;-68
2024/01/19 05:03:06;;;;;;;18.00;11.82;;;;;;;-6.80;100.00;100648.94;7400736;19;20380;-68
2024/01/19 05:05:34;;;;;;;25.13;13.13;;;;;;;-6.80;100.00;100651.47;7399016;19;20019;-68
2024/01/19 05:08:03;;;;;;;19.85;11.13;;;;;;;-6.80;100.00;100660.81;7401491;19;20024;-69
2024/01/19 05:10:35;;;;;;;19.10;10.52;;;;;;;-6.82;100.00;100658.22;7401480;19;20431;-70
2024/01/19 05:13:03;;;;;;;21.83;11.95;;;;;;;-6.82;100.00;100664.97;7399355;19;20366;-68
2024/01/19 05:15:32;;;;;;;20.92;11.07;;;;;;;-6.82;100.00;100667.53;7401180;19;20014;-69
2024/01/19 05:18:00;;;;;;;22.48;11.75;;;;;;;-6.84;100.00;100670.00;7401045;19;20376;-68
2024/01/19 05:20:29;;;;;;;18.42;10.20;;;;;;;-6.92;100.00;100663.69;7401690;19;20014;-68
2024/01/19 05:22:58;;;;;;;20.15;11.10;;;;;;;-6.87;100.00;100673.28;7400135;19;20390;-69
2024/01/19 05:25:26;;;;;;;21.70;11.75;;;;;;;-6.88;100.00;100675.78;7401009;19;20040;-68
2024/01/19 05:27:57;;;;;;;21.98;11.90;;;;;;;-6.92;100.00;100676.44;7400653;19;20023;-68
2024/01/19 05:30:26;;;;;;;18.73;10.60;;;;;;;-6.90;100.00;100677.38;7397785;19;20015;-68
2024/01/19 05:32:54;;;;;;;18.98;11.48;;;;;;;-6.91;100.00;100690.94;7398227;19;20074;-68
2024/01/19 05:35:23;;;;;;;18.95;11.25;;;;;;;-6.93;100.00;100685.75;7399925;19;20381;-68
2024/01/19 05:37:51;;;;;;;22.85;11.65;;;;;;;-6.95;100.00;100686.47;7400442;19;20027;-68
2024/01/19 05:40:20;;;;;;;17.40;10.63;;;;;;;-6.96;100.00;100687.28;7400263;19;20070;-69
2024/01/19 05:42:48;;;;;;;17.80;10.35;;;;;;;-6.97;100.00;100688.09;7399681;19;20424;-68
2024/01/19 05:45:21;;;;;;;20.85;10.75;;;;;;;-6.98;100.00;100694.00;7400130;19;20028;-68
2024/01/19 05:47:49;;;;;;;22.20;11.27;;;;;;;-7.00;100.00;100696.47;7400715;19;20042;-68
2024/01/19 05:50:18;;;;;;;19.67;11.27;;;;;;;-6.99;100.00;100699.91;7397801;19;20015;-68
2024/01/19 05:52:47;;;;;;;21.15;11.52;;;;;;;-6.98;100.00;100696.56;7396105;19;20509;-69
2024/01/19 05:55:16;;;;;;;21.50;11.57;;;;;;;-7.02;100.00;100697.22;7400267;19;20017;-69
2024/01/19 05:57:44;;;;;;;23.85;12.35;;;;;;;-7.03;100.00;100698.88;7398636;19;20367;-69
2024/01/19 06:00:21;;;;;;;29.50;12.38;;;;;;;-7.04;100.00;100697.09;7395969;19;20010;-69
2024/01/19 06:02:52;;;;;;;19.55;10.82;;;;;;;-7.06;100.00;100699.59;7398730;19;20014;-69
2024/01/19 06:05:20;;;;;;;22.73;10.35;;;;;;;-7.04;100.00;100708.19;7399660;19;20014;-69
2024/01/19 06:07:49;;;;;;;21.48;11.32;;;;;;;-7.04;100.00;100709.84;7399344;19;20019;-69
2024/01/19 06:10:24;;;;;;;16.63;10.15;;;;;;;-7.04;100.00;100707.31;7396678;19;20022;-68
2024/01/19 06:12:53;;;;;;;16.67;10.35;;;;;;;-7.02;100.00;100709.97;7397429;19;20375;-68
2024/01/19 06:15:21;;;;;;;19.85;9.43;;;;;;;-7.01;100.00;100711.69;7398565;19;20074;-68
2024/01/19 06:17:52;;;;;;;23.35;10.68;;;;;;;-6.99;100.00;100716.06;7396398;19;20019;-69
2024/01/19 06:20:21;;;;;;;15.20;8.57;;;;;;;-6.97;100.00;100718.72;7397186;19;20074;-70
2024/01/19 06:22:49;;;;;;;16.95;9.20;;;;;;;-6.97;100.00;100724.66;7396299;19;20094;-68
2024/01/19 06:25:18;;;;;;;12.88;8.02;;;;;;;-6.95;100.00;100734.94;7396829;19;20010;-69
2024/01/19 06:27:47;;;;;;;14.55;8.70;;;;;;;-6.95;100.00;100730.75;7398321;19;20427;-69
2024/01/19 06:30:16;;;;;;;15.30;8.68;;;;;;;-6.92;100.00;100732.56;7397370;19;20374;-70
2024/01/19 06:32:44;;;;;;;15.85;8.85;;;;;;;-6.90;100.00;100731.84;7395878;19;20350;-69
2024/01/19 06:35:16;;;;;;;17.60;8.75;;;;;;;-6.88;100.00;100735.31;7398810;19;20036;-69
2024/01/19 06:37:44;;;;;;;14.27;8.60;;;;;;;-6.85;100.00;100734.59;7397116;19;20035;-69
2024/01/19 06:40:14;;;;;;;18.38;9.70;;;;;;;-6.83;100.00;100752.53;7398316;19;20018;-69
2024/01/19 06:42:43;;;;;;;15.02;9.55;;;;;;;-6.80;100.00;100752.69;7395770;19;20026;-70
2024/01/19 06:45:12;;;;;;;19.48;9.52;;;;;;;-6.78;100.00;100751.09;7397873;19;20375;-69
2024/01/19 06:47:41;;;;;;;17.67;9.57;;;;;;;-6.78;100.00;100754.50;7395712;19;20015;-70
2024/01/19 06:50:10;;;;;;;22.88;10.93;;;;;;;-6.77;100.00;100761.38;7396325;19;20019;-69
2024/01/19 06:52:41;;;;;;;17.70;9.48;;;;;;;-6.79;100.00;100760.41;7396755;19;20083;-69
2024/01/19 06:55:10;;;;;;;15.27;9.43;;;;;;;-6.79;100.00;100752.75;7398530;19;20024;-69
2024/01/19 06:57:39;;;;;;;19.92;11.70;;;;;;;-6.80;100.00;100761.19;7398128;19;20017;-69
2024/01/19 07:00:09;;;;;;;19.73;9.95;;;;;;;-6.79;100.00;100767.19;7398155;19;20014;-69
2024/01/19 07:02:37;;;;;;;19.58;10.75;;;;;;;-6.77;100.00;100773.25;7396931;19;20021;-69
2024/01/19 07:05:07;;;;;;;18.67;10.10;;;;;;;-6.76;100.00;100777.53;7395752;19;20053;-69
2024/01/19 07:07:35;;;;;;;19.38;9.80;;;;;;;-6.75;100.00;100775.09;7397474;19;20014;-69
2024/01/19 07:10:07;;;;;;;22.30;10.30;;;;;;;-6.76;100.00;100768.22;7397497;19;20027;-69
2024/01/19 07:12:36;;;;;;;19.38;10.30;;;;;;;-6.75;100.00;100774.19;7396734;19;20015;-70
2024/01/19 07:15:12;;;;;;;20.67;11.55;;;;;;;-6.76;100.00;100780.97;7396899;19;20006;-70
2024/01/19 07:17:41;;;;;;;22.27;11.07;;;;;;;-6.74;100.00;100791.25;7396971;19;20014;-69
2024/01/19 07:20:11;;;;;;;18.63;10.98;;;;;;;-6.70;100.00;100790.59;7396972;19;20031;-69
2024/01/19 07:22:39;;;;;;;25.20;12.55;;;;;;;-6.69;100.00;100797.47;7396578;19;20383;-70
2024/01/19 07:25:11;;;;;;;23.45;12.02;;;;;;;-6.68;100.00;100793.22;7396939;19;20022;-69
2024/01/19 07:27:39;;;;;;;21.92;11.38;;;;;;;-6.69;100.00;100788.94;7396494;19;20016;-69
2024/01/19 07:30:09;;;;;;;21.00;11.45;;;;;;;-6.66;100.00;100797.63;7396703;19;20011;-69
2024/01/19 07:32:37;;;;;;;24.65;12.68;;;;;;;-6.65;100.00;100804.44;7395467;19;20078;-69
2024/01/19 07:35:07;;;;;;;22.65;13.30;;;;;;;-6.64;100.00;100805.34;7396469;19;20014;-70
2024/01/19 07:37:35;;;;;;;26.38;14.32;;;;;;;-6.63;100.00;100802.00;7396496;19;20473;-69
2024/01/19 07:40:03;;;;;;;23.60;13.70;;;;;;;-6.62;100.00;100798.63;7394622;19;20380;-70
2024/01/19 07:42:35;;;;;;;32.13;13.30;;;;;;;-6.59;100.00;100812.41;7396286;19;20077;-70
2024/01/19 07:45:03;;;;;;;25.10;14.75;;;;;;;-6.58;100.00;100810.75;7396999;19;20014;-70
2024/01/19 07:47:32;;;;;;;22.23;13.75;;;;;;;-6.57;100.00;100812.47;7396593;19;20014;-69
2024/01/19 07:50:00;;;;;;;28.17;16.17;;;;;;;-6.54;100.00;100817.75;7394263;19;20014;-69
2024/01/19 07:52:29;;;;;;;25.63;15.85;;;;;;;-6.55;100.00;100821.97;7395850;19;20024;-69
2024/01/19 07:54:57;;;;;;;23.70;13.95;;;;;;;-6.53;100.00;100823.72;7396148;19;20010;-70
2024/01/19 07:57:26;;;;;;;24.90;14.50;;;;;;;-6.55;100.00;100831.31;7396229;19;20019;-69
2024/01/19 07:59:57;;;;;;;28.83;15.30;;;;;;;-6.54;100.00;100830.50;7395481;19;20072;-68
2024/01/19 08:02:25;;;;;;;26.73;15.18;;;;;;;-6.53;100.00;100824.63;7396352;19;20027;-69
2024/01/19 08:04:54;;;;;;;26.80;15.60;;;;;;;-6.52;100.00;100833.13;7395981;19;20027;-68
2024/01/19 08:07:22;;;;;;;29.10;15.27;;;;;;;-6.51;100.00;100833.19;7395130;19;20490;-68
2024/01/19 08:09:51;;;;;;;28.40;15.57;;;;;;;-6.49;100.00;100830.75;7395318;19;20022;-68
2024/01/19 08:12:19;;;;;;;28.70;16.67;;;;;;;-6.49;100.00;100835.84;7394074;19;20007;-69
2024/01/19 08:14:48;;;;;;;32.22;18.42;;;;;;;-6.44;100.00;100835.25;7394660;19;20018;-69
2024/01/19 08:17:19;;;;;;;31.33;17.40;;;;;;;-6.42;100.00;100836.22;7394956;19;20357;-68
2024/01/19 08:19:48;;;;;;;33.35;17.25;;;;;;;-6.38;100.00;100834.69;7395366;19;20014;-68
2024/01/19 08:22:16;;;;;;;26.63;15.18;;;;;;;-6.35;100.00;100841.63;7395546;19;20070;-68
2024/01/19 08:24:45;;;;;;;30.77;16.27;;;;;;;-6.30;100.00;100847.84;7392729;19;20481;-69
2024/01/19 08:27:13;;;;;;;31.95;17.08;;;;;;;-6.26;100.00;100849.72;7394874;19;20018;-69
2024/01/19 08:29:41;;;;;;;29.65;16.65;;;;;;;-6.23;100.00;100848.19;7394482;19;20014;-69
2024/01/19 08:32:10;;;;;;;37.13;18.98;;;;;;;-6.17;100.00;100860.38;7394737;19;20014;-68
2024/01/19 08:34:41;;;;;;;31.15;17.42;;;;;;;-6.13;100.00;100846.97;7392649;19;20510;-69
2024/01/19 08:37:09;;;;;;;33.38;17.70;;;;;;;-6.07;100.00;100862.56;7395073;19;20018;-69
2024/01/19 08:39:38;;;;;;;36.38;17.40;;;;;;;-6.02;100.00;100872.13;7394244;19;20489;-69
2024/01/19 08:42:07;;;;;;;32.42;17.52;;;;;;;-6.01;100.00;100859.44;7394627;19;20018;-69
2024/01/19 08:44:36;;;;;;;31.42;16.15;;;;;;;-5.96;100.00;100860.50;7392774;19;20011;-69
2024/01/19 08:47:05;;;;;;;31.17;17.08;;;;;;;-5.91;100.00;100869.25;7394171;19;20027;-68
2024/01/19 08:49:33;;;;;;;29.98;17.38;;;;;;;-5.85;100.00;100862.66;7392840;19;20011;-68
2024/01/19 08:52:05;;;;;;;30.00;15.98;;;;;;;-5.80;100.00;100877.44;7394280;19;20019;-68
2024/01/19 08:54:33;;;;;;;27.05;16.20;;;;;;;-5.75;100.00;100875.06;7392645;19;20007;-67
2024/01/19 08:57:01;;;;;;;27.30;16.10;;;;;;;-5.68;100.00;100868.56;7393981;19;20368;-68
2024/01/19 08:59:32;;;;;;;31.33;16.88;;;;;;;-5.62;100.00;100872.28;7394245;19;20010;-68
2024/01/19 09:02:00;;;;;;;29.25;16.58;;;;;;;-5.55;100.00;100870.88;7393533;19;20477;-69
2024/01/19 09:04:29;;;;;;;30.13;16.20;;;;;;;-5.47;100.00;100869.56;7392124;19;20032;-68
2024/01/19 09:06:57;;;;;;;30.85;16.38;;;;;;;-5.39;100.00;100872.44;7394199;19;20108;-68
2024/01/19 09:09:29;;;;;;;30.95;16.98;;;;;;;-5.29;100.00;100878.88;7394068;19;20015;-68
2024/01/19 09:11:58;;;;;;;27.23;15.30;;;;;;;-5.24;100.00;100875.69;7394172;19;20015;-68
2024/01/19 09:14:26;;;;;;;31.42;17.65;;;;;;;-5.11;100.00;100881.34;7391368;19;20010;-68
2024/01/19 09:16:55;;;;;;;25.45;15.27;;;;;;;-5.01;100.00;100886.06;7393807;19;20031;-68
2024/01/19 09:19:23;;;;;;;35.53;16.27;;;;;;;-4.89;100.00;100892.53;7393651;19;20011;-68
2024/01/19 09:21:52;;;;;;;30.20;17.52;;;;;;;-4.78;100.00;100898.97;7392856;19;20501;-68
2024/01/19 09:24:20;;;;;;;26.08;16.77;;;;;;;-4.68;100.00;100902.81;7390636;19;20422;-69
2024/01/19 09:26:51;;;;;;;30.10;14.70;;;;;;;-4.57;100.00;100901.59;7399199;19;20014;-68
2024/01/19 09:29:20;;;;;;;23.48;12.90;;;;;;;-4.46;100.00;100915.72;7400855;19;20015;-68
2024/01/19 09:31:49;;;;;;;25.17;13.55;;;;;;;-4.35;100.00;100925.53;7400902;19;20104;-68
2024/01/19 09:34:18;;;;;;;23.20;11.73;;;;;;;-4.24;100.00;100929.41;7398029;19;20023;-68
2024/01/19 09:36:46;;;;;;;20.77;11.05;;;;;;;-4.13;100.00;100919.63;7398382;19;20075;-68
2024/01/19 09:39:15;;;;;;;18.85;12.52;;;;;;;-4.02;100.00;100928.63;7400747;19;20364;-68
2024/01/19 09:41:52;;;;;;;19.85;11.15;;;;;;;-3.89;100.00;100918.84;7400374;19;20010;-68
2024/01/19 09:44:22;;;;;;;21.65;12.35;;;;;;;-3.80;100.00;100927.78;7398417;19;20014;-69
2024/01/19 09:47:18;;;;;;;18.92;11.45;;;;;;;-3.68;100.00;100936.78;7400662;19;20026;-69
2024/01/19 09:50:01;;;;;;;22.50;12.02;;;;;;;-3.57;100.00;100932.06;7398708;19;20031;-69
2024/01/19 09:52:43;;;;;;;16.48;10.30;;;;;;;-3.45;100.00;100937.66;7399897;19;20015;-69
2024/01/19 09:55:13;;;;;;;17.10;10.32;;;;;;;-3.32;100.00;100939.88;7400140;19;20014;-69
2024/01/19 09:57:49;;;;;;;17.35;10.48;;;;;;;-3.22;100.00;100941.13;7400323;19;20069;-70
2024/01/19 10:00:20;;;;;;;16.40;10.10;;;;;;;-3.11;100.00;100950.09;7399936;19;20591;-69
2024/01/19 10:02:50;;;;;;;19.73;9.18;;;;;;;-2.99;100.00;100948.78;7399894;19;20011;-69
2024/01/19 10:05:20;;;;;;;24.23;12.90;;;;;;;-2.89;100.00;100950.88;7397267;19;20006;-69
2024/01/19 10:07:53;;;;;;;24.83;9.88;;;;;;;-2.79;100.00;100952.09;7397768;19;20081;-69
2024/01/19 10:10:22;;;;;;;17.55;10.25;;;;;;;-2.70;100.00;100957.53;7397143;19;20011;-70
2024/01/19 10:12:53;;;;;;;15.93;9.38;;;;;;;-2.61;100.00;100972.41;7398618;19;20358;-69
2024/01/19 10:15:21;;;;;;;15.30;9.15;;;;;;;-2.54;100.00;100958.97;7398841;19;20477;-69
2024/01/19 10:17:50;;;;;;;12.82;9.30;;;;;;;-2.46;100.00;100966.94;7398876;19;20027;-69
2024/01/19 10:20:19;;;;;;;19.95;10.55;;;;;;;-2.40;100.00;100964.59;7400096;19;20019;-70
2024/01/19 10:22:47;;;;;;;21.60;12.52;;;;;;;-2.35;100.00;100962.16;7399216;19;20011;-69
2024/01/19 10:25:17;;;;;;;20.08;10.32;;;;;;;-2.27;100.00;100963.31;7399377;19;20031;-69
2024/01/19 10:27:47;;;;;;;16.58;9.20;;;;;;;-2.22;100.00;100961.78;7396951;19;20146;-68
2024/01/19 10:30:20;;;;;;;13.18;8.48;;;;;;;-2.17;100.00;100974.78;7396866;19;20360;-66
2024/01/19 10:32:51;;;;;;;14.38;8.70;;;;;;;-2.10;99.58;100975.84;7397659;19;20426;-66
2024/01/19 10:35:21;;;;;;;18.08;9.68;;;;;;;-2.03;100.00;100980.41;7396030;19;20023;-65
2024/01/19 10:37:50;;;;;;;13.43;7.65;;;;;;;-1.99;100.00;100993.38;7395227;19;20086;-65
2024/01/19 10:40:27;;;;;;;16.92;8.90;;;;;;;-1.92;100.00;100988.44;7398555;19;20014;-67
2024/01/19 10:42:57;;;;;;;13.65;9.30;;;;;;;-1.88;100.00;100985.19;7398830;19;20010;-67
2024/01/19 10:45:29;;;;;;;18.02;9.43;;;;;;;-1.85;100.00;100996.41;7397511;19;20399;-64
2024/01/19 10:47:59;;;;;;;14.77;9.05;;;;;;;-1.80;99.56;101002.56;7396035;19;20034;-64
2024/01/19 10:50:29;;;;;;;14.45;9.65;;;;;;;-1.75;99.67;101007.03;7396078;19;20481;-64
2024/01/19 10:52:58;;;;;;;15.80;9.05;;;;;;;-1.69;100.00;101014.94;7397374;19;20025;-63
2024/01/19 10:55:28;;;;;;;15.40;8.48;;;;;;;-1.65;100.00;101009.06;7395594;19;20018;-65
2024/01/19 10:57:59;;;;;;;17.30;8.23;;;;;;;-1.61;97.51;101013.47;7396262;19;20024;-65
2024/01/19 11:00:31;;;;;;;13.45;8.38;;;;;;;-1.55;100.00;101016.25;7397435;19;20017;-67
2024/01/19 11:03:03;;;;;;;16.45;8.23;;;;;;;-1.50;99.05;101014.69;7397199;19;20011;-64
2024/01/19 11:05:32;;;;;;;16.27;8.77;;;;;;;-1.44;98.95;101013.13;7395769;19;20028;-64
2024/01/19 11:08:02;;;;;;;19.15;9.27;;;;;;;-1.40;100.00;101017.56;7397474;19;20473;-68
2024/01/19 11:10:32;;;;;;;18.85;10.10;;;;;;;-1.35;98.71;101019.47;7397777;19;20104;-69
2024/01/19 11:13:02;;;;;;;15.75;8.77;;;;;;;-1.30;99.42;101014.47;7396943;19;20018;-69